This is the latest recevied weather packets stored in our database for station/object JO1YDG-13. If no packets are shown the sender has not sent any weather packets the latest 10 day(s).
| Time | Temp. | Humidity | Pressure | Rain* | Wind** | Luminosity | Snow |
|---|---|---|---|---|---|---|---|
| 1777814122 | 15.56° C | 92% | 976.7 hPa | 0 mm | - | - | - |
| 1777811722 | 15.56° C | 88% | 977.4 hPa | 0 mm | - | - | - |
| 1777810521 | 16.11° C | 88% | 977.7 hPa | 0 mm | - | - | - |
| 1777810221 | 16.11° C | 87% | 978.1 hPa | 0 mm | - | - | - |
| 1777808121 | 16.11° C | 84% | 978 hPa | 0 mm | - | - | - |
| 1777807521 | 16.11° C | 85% | 978.2 hPa | 0 mm | - | - | - |
| 1777806622 | 16.11° C | 86% | 978.2 hPa | 0 mm | - | - | - |
| 1777806022 | 16.11° C | 85% | 978.1 hPa | 0 mm | - | - | - |
| 1777802721 | 17.78° C | 72% | 977.8 hPa | 0 mm | - | - | - |
| 1777802421 | 18.33° C | 71% | 977.6 hPa | 0 mm | - | - | - |
| 1777802121 | 18.89° C | 67% | 977.6 hPa | 0 mm | - | - | - |
| 1777801222 | 19.44° C | 63% | 977.9 hPa | 0 mm | - | - | - |
| 1777800922 | 19.44° C | 62% | 977.7 hPa | 0 mm | - | - | - |
| 1777800622 | 19.44° C | 60% | 977.7 hPa | 0 mm | - | - | - |
| 1777800321 | 19.44° C | 59% | 977.8 hPa | 0 mm | - | - | - |
| 1777800021 | 20° C | 56% | 977.8 hPa | 0 mm | - | - | - |
| 1777799721 | 20.56° C | 50% | 977.8 hPa | 0 mm | - | - | - |
| 1777799421 | 21.11° C | 47% | 977.7 hPa | 0 mm | - | - | - |
| 1777799120 | 21.11° C | 46% | 977.7 hPa | 0 mm | - | - | - |
| 1777798822 | 21.11° C | 47% | 977.8 hPa | 0 mm | - | - | - |
| 1777798522 | 21.67° C | 44% | 977.8 hPa | 0 mm | - | - | - |
| 1777798222 | 21.67° C | 44% | 977.6 hPa | 0 mm | - | - | - |
| 1777797922 | 21.67° C | 43% | 977.6 hPa | 0 mm | - | - | - |
| 1777797621 | 21.67° C | 43% | 977.6 hPa | 0 mm | - | - | - |
| 1777797321 | 22.22° C | 41% | 977.8 hPa | 0 mm | - | - | - |
* Rain latest hour (hover to see other rain measurements)
** Current wind speed in m/s (hover to see current wind gust speed)